createdAt,value
2018-09-11T00:00:11.757Z,2.83
2018-09-11T00:02:39.910Z,2.90
2018-09-11T00:05:08.049Z,2.80
2018-09-11T00:07:36.173Z,2.83
2018-09-11T00:10:04.269Z,2.93
2018-09-11T00:12:32.573Z,2.80
2018-09-11T00:15:00.666Z,3.07
2018-09-11T00:17:29.287Z,2.60
2018-09-11T00:19:57.416Z,2.80
2018-09-11T00:22:25.547Z,2.90
2018-09-11T00:24:53.625Z,3.30
2018-09-11T00:27:21.919Z,2.50
2018-09-11T00:29:50.205Z,2.77
2018-09-11T00:32:18.284Z,3.27
2018-09-11T00:34:46.367Z,2.83
2018-09-11T00:37:14.456Z,2.70
2018-09-11T00:39:42.548Z,2.60
2018-09-11T00:42:10.661Z,2.70
2018-09-11T00:44:38.799Z,2.63
2018-09-11T00:47:06.882Z,2.77
2018-09-11T00:49:34.942Z,2.97
2018-09-11T00:52:03.059Z,2.77
2018-09-11T00:54:31.206Z,2.80
2018-09-11T00:56:59.373Z,2.63
2018-09-11T00:59:27.417Z,2.40
2018-09-11T01:01:55.601Z,3.20
2018-09-11T01:04:23.737Z,2.50
2018-09-11T01:06:52.075Z,2.20
2018-09-11T01:09:20.283Z,2.53
2018-09-11T01:11:48.329Z,2.97
2018-09-11T01:14:16.501Z,2.50
2018-09-11T01:16:44.692Z,2.60
2018-09-11T01:19:12.796Z,2.60
2018-09-11T01:21:40.983Z,2.90
2018-09-11T01:24:09.051Z,2.70
2018-09-11T01:26:37.172Z,3.03
2018-09-11T01:29:05.335Z,2.63
2018-09-11T01:31:33.446Z,3.27
2018-09-11T01:34:01.597Z,3.17
2018-09-11T01:36:29.685Z,2.57
2018-09-11T01:38:57.766Z,2.93
2018-09-11T01:41:25.870Z,2.40
2018-09-11T01:43:54.592Z,2.80
2018-09-11T01:46:22.711Z,2.67
2018-09-11T01:48:50.939Z,2.30
2018-09-11T01:51:18.973Z,2.70
2018-09-11T01:53:47.013Z,2.60
2018-09-11T01:56:15.112Z,2.83
2018-09-11T01:58:43.262Z,3.23
2018-09-11T02:01:11.318Z,2.50
2018-09-11T02:03:39.394Z,2.27
2018-09-11T02:06:07.437Z,2.30
2018-09-11T02:08:35.514Z,3.10
2018-09-11T02:11:03.612Z,2.87
2018-09-11T02:13:31.700Z,2.70
2018-09-11T02:15:59.800Z,3.10
2018-09-11T02:18:27.850Z,3.07
2018-09-11T02:20:55.964Z,3.43
2018-09-11T02:23:24.013Z,2.70
2018-09-11T02:25:52.177Z,2.70
2018-09-11T02:28:20.262Z,2.90
2018-09-11T02:30:48.394Z,3.10
2018-09-11T02:33:16.460Z,3.40
2018-09-11T02:35:44.588Z,3.00
2018-09-11T02:38:12.622Z,3.07
2018-09-11T02:40:40.679Z,2.80
2018-09-11T02:43:08.804Z,2.77
2018-09-11T02:45:36.939Z,3.17
2018-09-11T02:48:05.094Z,2.90
2018-09-11T02:50:33.155Z,3.13
2018-09-11T02:53:01.247Z,2.80
2018-09-11T02:55:29.562Z,2.97
2018-09-11T02:57:57.646Z,2.80
2018-09-11T03:00:25.731Z,2.93
2018-09-11T03:02:53.802Z,3.27
2018-09-11T03:05:21.825Z,2.63
2018-09-11T03:07:49.958Z,2.80
2018-09-11T03:10:18.050Z,2.67
2018-09-11T03:12:46.240Z,3.00
2018-09-11T03:15:14.368Z,2.57
2018-09-11T03:17:42.445Z,3.10
2018-09-11T03:20:10.542Z,3.20
2018-09-11T03:22:38.610Z,2.83
2018-09-11T03:25:06.690Z,3.13
2018-09-11T03:27:34.735Z,2.60
2018-09-11T03:30:02.875Z,2.70
2018-09-11T03:32:30.940Z,2.70
2018-09-11T03:34:59.103Z,2.87
2018-09-11T03:37:27.327Z,2.83
2018-09-11T03:39:56.422Z,2.90
2018-09-11T03:42:24.522Z,3.20
2018-09-11T03:44:52.699Z,2.87
2018-09-11T03:47:20.820Z,2.70
2018-09-11T03:49:48.935Z,2.90
2018-09-11T03:52:17.097Z,3.17
2018-09-11T03:54:45.199Z,2.70
2018-09-11T03:57:13.596Z,2.90
2018-09-11T03:59:41.747Z,2.50
2018-09-11T04:02:09.949Z,2.83
2018-09-11T04:04:38.053Z,3.17
2018-09-11T04:07:06.151Z,2.90
2018-09-11T04:09:34.211Z,2.83
2018-09-11T04:12:02.306Z,2.87
2018-09-11T04:14:30.351Z,2.80
2018-09-11T04:16:58.450Z,2.87
2018-09-11T04:19:26.536Z,3.63
2018-09-11T04:21:54.654Z,3.10
2018-09-11T04:24:23.486Z,3.20
2018-09-11T04:26:51.583Z,3.30
2018-09-11T04:29:19.662Z,3.33
2018-09-11T04:31:47.811Z,3.20
2018-09-11T04:34:15.879Z,3.37
2018-09-11T04:36:44.016Z,3.37
2018-09-11T04:39:12.115Z,3.57
2018-09-11T04:41:40.225Z,3.43
2018-09-11T04:44:08.376Z,3.20
2018-09-11T04:46:36.440Z,3.33
2018-09-11T04:49:04.535Z,3.40
2018-09-11T04:51:32.644Z,2.83
2018-09-11T04:54:00.734Z,3.30
2018-09-11T04:56:29.063Z,3.33
2018-09-11T04:58:57.279Z,3.67
2018-09-11T05:01:25.350Z,3.60
2018-09-11T05:03:53.435Z,3.30
2018-09-11T05:06:21.522Z,3.80
2018-09-11T05:08:49.606Z,3.60
2018-09-11T05:11:17.768Z,4.00
2018-09-11T05:13:46.267Z,3.60
2018-09-11T05:16:14.444Z,3.60
2018-09-11T05:18:42.537Z,3.93
2018-09-11T05:21:10.613Z,3.73
2018-09-11T05:23:38.689Z,3.67
2018-09-11T05:26:06.797Z,4.00
2018-09-11T05:28:34.857Z,4.07
2018-09-11T05:31:02.965Z,4.00
2018-09-11T05:33:31.242Z,4.33
2018-09-11T05:35:59.380Z,4.73
2018-09-11T05:38:28.126Z,4.30
2018-09-11T05:40:56.206Z,3.80
2018-09-11T05:43:24.285Z,4.10
2018-09-11T05:45:52.395Z,4.20
2018-09-11T05:48:20.515Z,3.87
2018-09-11T05:50:48.674Z,3.80
2018-09-11T05:53:16.780Z,3.87
2018-09-11T05:55:44.867Z,3.60
2018-09-11T05:58:13.031Z,3.63
2018-09-11T06:00:41.020Z,4.00
2018-09-11T06:03:09.104Z,3.80
2018-09-11T06:05:37.258Z,3.70
2018-09-11T06:08:05.349Z,4.00
2018-09-11T06:10:33.422Z,4.03
2018-09-11T06:13:01.538Z,3.90
2018-09-11T06:15:29.626Z,3.70
2018-09-11T06:17:57.709Z,4.03
2018-09-11T06:20:25.810Z,4.37
2018-09-11T06:22:53.903Z,4.17
2018-09-11T06:25:22.128Z,4.47
2018-09-11T06:27:50.283Z,4.47
2018-09-11T06:30:18.484Z,4.73
2018-09-11T06:32:46.712Z,3.83
2018-09-11T06:35:14.984Z,3.90
2018-09-11T06:37:43.088Z,4.20
2018-09-11T06:40:11.138Z,4.03
2018-09-11T06:42:39.200Z,3.80
2018-09-11T06:45:07.305Z,3.67
2018-09-11T06:47:35.430Z,4.00
2018-09-11T06:50:03.600Z,4.47
2018-09-11T06:52:31.669Z,3.67
2018-09-11T06:54:59.738Z,4.17
2018-09-11T06:57:27.825Z,3.30
2018-09-11T06:59:55.888Z,4.10
2018-09-11T07:02:24.109Z,4.27
2018-09-11T07:04:52.349Z,3.53
2018-09-11T07:07:20.431Z,3.93
2018-09-11T07:09:48.547Z,3.77
2018-09-11T07:12:16.636Z,3.13
2018-09-11T07:14:44.797Z,3.70
2018-09-11T07:17:12.917Z,3.83
2018-09-11T07:19:41.117Z,4.03
2018-09-11T07:22:09.138Z,3.63
2018-09-11T07:24:37.466Z,3.43
2018-09-11T07:27:05.572Z,3.60
2018-09-11T07:29:33.670Z,4.17
2018-09-11T07:32:01.730Z,3.87
2018-09-11T07:34:29.942Z,4.20
2018-09-11T07:36:58.179Z,4.27
2018-09-11T07:39:26.269Z,4.50
2018-09-11T07:41:54.362Z,4.47
2018-09-11T07:44:22.876Z,4.00
2018-09-11T07:46:51.633Z,3.33
2018-09-11T07:49:19.719Z,4.20
2018-09-11T07:51:48.448Z,4.50
2018-09-11T07:54:16.648Z,4.23
2018-09-11T07:56:44.744Z,4.60
2018-09-11T07:59:12.856Z,4.20
2018-09-11T08:01:40.995Z,4.00
2018-09-11T08:04:09.145Z,4.90
2018-09-11T08:06:37.473Z,4.17
2018-09-11T08:09:07.800Z,4.37
2018-09-11T08:11:35.915Z,4.60
2018-09-11T08:14:04.021Z,4.13
2018-09-11T08:16:32.085Z,4.37
2018-09-11T08:19:00.254Z,4.07
2018-09-11T08:21:28.370Z,6.07
2018-09-11T08:23:56.515Z,4.43
2018-09-11T08:26:24.919Z,3.97
2018-09-11T08:28:53.220Z,4.20
2018-09-11T08:31:21.258Z,4.20
2018-09-11T08:33:49.347Z,3.90
2018-09-11T08:36:17.423Z,4.27
2018-09-11T08:38:45.673Z,4.37
2018-09-11T08:41:13.833Z,4.20
2018-09-11T08:43:41.921Z,3.70
2018-09-11T08:46:10.336Z,3.80
2018-09-11T08:48:38.645Z,4.00
2018-09-11T08:51:09.759Z,3.90
2018-09-11T08:53:38.401Z,3.90
2018-09-11T08:56:06.569Z,3.73
2018-09-11T08:58:34.685Z,3.73
2018-09-11T09:01:02.723Z,3.83
2018-09-11T09:03:31.160Z,3.47
2018-09-11T09:05:59.517Z,4.07
2018-09-11T09:08:27.627Z,3.83
2018-09-11T09:10:55.868Z,3.77
2018-09-11T09:13:23.938Z,3.60
2018-09-11T09:15:52.048Z,3.77
2018-09-11T09:18:20.124Z,3.97
2018-09-11T09:20:48.674Z,3.70
2018-09-11T09:23:16.940Z,3.60
2018-09-11T09:25:45.011Z,3.43
2018-09-11T09:28:13.175Z,3.87
2018-09-11T09:30:41.339Z,4.07
2018-09-11T09:33:09.475Z,3.60
2018-09-11T09:35:37.605Z,3.47
2018-09-11T09:38:05.759Z,3.73
2018-09-11T09:40:33.922Z,3.50
2018-09-11T09:43:02.002Z,4.70
2018-09-11T09:45:30.146Z,3.20
2018-09-11T09:47:58.995Z,3.80
2018-09-11T09:50:27.172Z,4.07
2018-09-11T09:52:55.285Z,3.87
2018-09-11T09:55:23.455Z,3.43
2018-09-11T09:57:51.516Z,3.77
2018-09-11T10:00:25.197Z,3.73
2018-09-11T10:02:53.289Z,3.67
2018-09-11T10:05:21.446Z,3.40
2018-09-11T10:07:50.192Z,3.30
2018-09-11T10:10:18.309Z,3.50
2018-09-11T10:12:46.380Z,3.43
2018-09-11T10:15:14.518Z,3.50
2018-09-11T10:17:42.636Z,3.93
2018-09-11T10:20:10.771Z,3.93
2018-09-11T10:22:38.830Z,3.60
2018-09-11T10:25:06.969Z,3.60
2018-09-11T10:27:35.037Z,4.23
2018-09-11T10:30:03.684Z,3.77
2018-09-11T10:32:31.834Z,3.63
2018-09-11T10:34:59.905Z,4.27
2018-09-11T10:37:28.017Z,3.40
2018-09-11T10:39:56.088Z,3.93
2018-09-11T10:42:24.201Z,3.30
2018-09-11T10:44:52.364Z,3.20
2018-09-11T10:47:20.361Z,3.83
2018-09-11T10:49:48.510Z,3.37
2018-09-11T10:52:16.671Z,3.20
2018-09-11T10:54:44.874Z,3.37
2018-09-11T10:57:12.996Z,3.43
2018-09-11T10:59:41.173Z,3.43
2018-09-11T11:02:09.271Z,3.10
2018-09-11T11:04:37.374Z,2.87
2018-09-11T11:07:05.527Z,3.53
2018-09-11T11:09:34.041Z,3.50
2018-09-11T11:12:03.027Z,3.20
2018-09-11T11:14:31.130Z,3.13
2018-09-11T11:16:59.283Z,3.47
2018-09-11T11:19:27.704Z,3.03
2018-09-11T11:21:56.110Z,3.27
2018-09-11T11:24:24.523Z,3.40
2018-09-11T11:26:52.871Z,3.47
2018-09-11T11:29:21.255Z,3.43
2018-09-11T11:31:49.648Z,3.47
2018-09-11T11:34:17.982Z,3.13
2018-09-11T11:36:46.387Z,3.13
2018-09-11T11:39:14.728Z,3.30
2018-09-11T11:41:43.118Z,2.90
2018-09-11T11:44:11.516Z,3.00
2018-09-11T11:46:40.588Z,3.23
2018-09-11T11:49:08.952Z,3.40
2018-09-11T11:51:37.334Z,3.40
2018-09-11T11:54:05.871Z,3.30
2018-09-11T11:56:34.301Z,3.23
2018-09-11T11:59:02.627Z,3.00
2018-09-11T12:01:31.002Z,3.20
2018-09-11T12:03:59.259Z,2.90
2018-09-11T12:06:27.640Z,3.80
2018-09-11T12:08:56.708Z,3.43
2018-09-11T12:11:25.058Z,3.50
2018-09-11T12:13:53.545Z,3.20
2018-09-11T12:16:22.087Z,3.00
2018-09-11T12:18:50.350Z,3.43
2018-09-11T12:21:18.701Z,2.73
2018-09-11T12:23:47.428Z,3.10
2018-09-11T12:26:15.795Z,2.80
2018-09-11T12:28:44.167Z,2.93
2018-09-11T12:31:13.229Z,2.90
2018-09-11T12:33:41.550Z,3.00
2018-09-11T12:36:09.862Z,3.13
2018-09-11T12:38:38.243Z,16.37
2018-09-11T12:41:06.571Z,7.43
2018-09-11T12:43:34.918Z,3.67
2018-09-11T12:46:03.406Z,3.40
2018-09-11T12:48:31.764Z,3.00
2018-09-11T12:51:00.064Z,3.00
2018-09-11T12:53:28.426Z,2.97
2018-09-11T12:55:56.832Z,3.23
2018-09-11T12:58:25.244Z,3.30
2018-09-11T13:00:53.613Z,2.70
2018-09-11T13:03:22.736Z,3.40
2018-09-11T13:05:51.084Z,3.23
2018-09-11T13:08:19.402Z,2.90
2018-09-11T13:10:48.042Z,3.07
2018-09-11T13:13:16.507Z,2.77
2018-09-11T13:15:44.902Z,2.60
2018-09-11T13:18:13.318Z,3.13
2018-09-11T13:20:41.677Z,2.70
2018-09-11T13:23:10.068Z,3.23
2018-09-11T13:25:38.442Z,3.63
2018-09-11T13:28:06.887Z,3.00
2018-09-11T13:30:35.155Z,2.70
2018-09-11T13:33:03.610Z,2.93
2018-09-11T13:35:32.088Z,2.77
2018-09-11T13:38:00.478Z,2.77
2018-09-11T13:40:29.426Z,2.73
2018-09-11T13:42:57.974Z,3.30
2018-09-11T13:45:26.303Z,3.03
2018-09-11T13:47:54.683Z,2.93
2018-09-11T13:50:23.146Z,2.90
2018-09-11T13:52:51.681Z,2.60
2018-09-11T13:55:20.411Z,3.07
2018-09-11T13:57:48.866Z,2.73
2018-09-11T14:00:17.346Z,2.50
2018-09-11T14:02:45.788Z,2.63
2018-09-11T14:05:14.156Z,2.77
2018-09-11T14:07:42.537Z,3.00
2018-09-11T14:10:10.897Z,2.60
2018-09-11T14:12:39.549Z,2.50
2018-09-11T14:15:08.173Z,2.60
2018-09-11T14:17:36.554Z,2.60
2018-09-11T14:20:05.684Z,2.77
2018-09-11T14:22:34.128Z,3.03
2018-09-11T14:25:02.491Z,2.60
2018-09-11T14:27:30.897Z,2.77
2018-09-11T14:29:59.259Z,2.63
2018-09-11T14:32:27.669Z,2.47
2018-09-11T14:34:56.186Z,2.97
2018-09-11T14:37:24.622Z,2.57
2018-09-11T14:39:53.029Z,2.13
2018-09-11T14:42:21.393Z,2.90
2018-09-11T14:44:49.809Z,2.30
2018-09-11T14:47:18.281Z,2.70
2018-09-11T14:49:46.782Z,2.80
2018-09-11T14:52:15.113Z,2.43
2018-09-11T14:54:43.531Z,2.37
2018-09-11T14:57:11.908Z,2.53
2018-09-11T14:59:40.284Z,2.60
2018-09-11T15:02:08.619Z,2.47
2018-09-11T15:04:37.000Z,2.40
2018-09-11T15:07:05.549Z,2.27
2018-09-11T15:09:33.910Z,2.53
2018-09-11T15:12:02.427Z,2.20
2018-09-11T15:14:30.733Z,2.17
2018-09-11T15:16:59.097Z,2.23
2018-09-11T15:19:27.417Z,2.67
2018-09-11T15:21:55.880Z,2.37
2018-09-11T15:24:24.207Z,2.50
2018-09-11T15:26:53.035Z,2.10
2018-09-11T15:29:21.347Z,2.80
2018-09-11T15:31:49.822Z,2.30
2018-09-11T15:34:18.187Z,2.70
2018-09-11T15:36:47.281Z,2.53
2018-09-11T15:39:15.697Z,2.67
2018-09-11T15:41:44.057Z,2.47
2018-09-11T15:44:12.357Z,2.30
2018-09-11T15:46:40.767Z,2.47
2018-09-11T15:49:09.275Z,2.10
2018-09-11T15:51:37.584Z,2.60
2018-09-11T15:54:05.974Z,2.93
2018-09-11T15:56:34.363Z,2.63
2018-09-11T15:59:02.837Z,2.50
2018-09-11T16:01:31.194Z,2.00
2018-09-11T16:03:59.646Z,2.33
2018-09-11T16:06:28.016Z,2.40
2018-09-11T16:08:56.387Z,2.17
2018-09-11T16:11:24.765Z,2.70
2018-09-11T16:13:53.094Z,3.27
2018-09-11T16:16:21.451Z,2.70
2018-09-11T16:18:49.847Z,2.87
2018-09-11T16:21:18.183Z,2.80
2018-09-11T16:23:46.768Z,3.10
2018-09-11T16:26:15.131Z,2.60
2018-09-11T16:28:43.747Z,3.20
2018-09-11T16:31:12.598Z,2.70
2018-09-11T16:33:41.018Z,2.87
2018-09-11T16:36:09.404Z,3.00
2018-09-11T16:38:37.779Z,2.50
2018-09-11T16:41:06.159Z,2.83
2018-09-11T16:43:36.692Z,2.57
2018-09-11T16:46:05.075Z,2.80
2018-09-11T16:48:33.592Z,3.10
2018-09-11T16:51:01.988Z,2.80
2018-09-11T16:53:30.324Z,3.10
2018-09-11T16:55:58.762Z,3.13
2018-09-11T16:58:27.217Z,3.63
2018-09-11T17:00:56.172Z,2.93
2018-09-11T17:03:24.649Z,2.87
2018-09-11T17:05:53.620Z,2.67
2018-09-11T17:08:22.044Z,3.20
2018-09-11T17:10:50.684Z,3.47
2018-09-11T17:13:21.972Z,3.50
2018-09-11T17:15:50.559Z,3.43
2018-09-11T17:18:18.937Z,3.97
2018-09-11T17:20:47.068Z,3.57
2018-09-11T17:23:15.491Z,3.60
2018-09-11T17:25:43.937Z,3.60
2018-09-11T17:28:12.869Z,3.97
2018-09-11T17:30:41.227Z,4.57
2018-09-11T17:33:10.476Z,3.70
2018-09-11T17:35:38.855Z,4.40
2018-09-11T17:38:07.385Z,3.97
2018-09-11T17:40:35.810Z,4.03
2018-09-11T17:43:04.753Z,3.80
2018-09-11T17:45:33.191Z,3.73
2018-09-11T17:48:02.031Z,4.03
2018-09-11T17:50:30.488Z,4.17
2018-09-11T17:52:59.073Z,3.43
2018-09-11T17:55:27.765Z,3.90
2018-09-11T17:57:56.071Z,5.10
2018-09-11T18:00:24.566Z,4.70
2018-09-11T18:02:53.835Z,3.93
2018-09-11T18:05:22.413Z,4.20
2018-09-11T18:07:50.784Z,4.37
2018-09-11T18:10:19.123Z,4.97
2018-09-11T18:12:47.487Z,5.00
2018-09-11T18:15:15.956Z,6.00
2018-09-11T18:17:44.310Z,6.07
2018-09-11T18:20:12.777Z,5.53
2018-09-11T18:22:41.114Z,5.40
2018-09-11T18:25:09.819Z,5.63
2018-09-11T18:27:38.610Z,5.57
2018-09-11T18:30:06.753Z,5.00
2018-09-11T18:32:34.877Z,4.53
2018-09-11T18:35:03.687Z,5.50
2018-09-11T18:37:31.783Z,6.40
2018-09-11T18:39:59.947Z,6.10
2018-09-11T18:42:28.101Z,7.70
2018-09-11T18:44:56.513Z,8.90
2018-09-11T18:47:24.986Z,9.87
2018-09-11T18:49:53.749Z,9.03
2018-09-11T18:52:22.535Z,7.33
2018-09-11T18:54:55.624Z,7.50
2018-09-11T18:57:23.945Z,6.90
2018-09-11T18:59:52.966Z,6.57
2018-09-11T19:02:21.182Z,7.00
2018-09-11T19:04:53.308Z,6.00
2018-09-11T19:07:21.519Z,5.87
2018-09-11T19:09:52.666Z,6.70
2018-09-11T19:12:20.731Z,5.80
2018-09-11T19:14:49.058Z,5.53
2018-09-11T19:17:17.995Z,5.17
2018-09-11T19:19:46.368Z,5.07
2018-09-11T19:22:14.556Z,5.87
2018-09-11T19:24:43.341Z,5.90
2018-09-11T19:27:11.486Z,5.77
2018-09-11T19:29:39.767Z,4.93
2018-09-11T19:32:07.930Z,5.93
2018-09-11T19:34:36.102Z,5.80
2018-09-11T19:37:04.223Z,4.80
2018-09-11T19:39:32.450Z,5.20
2018-09-11T19:49:43.640Z,4.40
2018-09-11T19:52:11.867Z,5.90
2018-09-11T19:54:40.509Z,6.80
2018-09-11T19:57:08.682Z,6.77
2018-09-11T19:59:36.859Z,4.87
2018-09-11T20:02:05.013Z,5.10
2018-09-11T20:04:34.109Z,5.67
2018-09-11T20:09:36.981Z,4.97
2018-09-11T20:12:05.952Z,5.17
2018-09-11T20:14:35.178Z,4.83
2018-09-11T20:17:06.281Z,4.17
2018-09-11T20:19:34.841Z,4.50
2018-09-11T20:22:04.107Z,4.10
2018-09-11T20:24:32.838Z,4.60
2018-09-11T20:27:01.214Z,4.60
2018-09-11T20:29:30.084Z,4.13
2018-09-11T20:31:58.448Z,4.67
2018-09-11T20:34:26.553Z,3.97
2018-09-11T20:36:54.831Z,4.33
2018-09-11T20:39:22.996Z,6.97
2018-09-11T20:41:51.443Z,4.20
2018-09-11T20:44:20.262Z,3.43
2018-09-11T20:46:49.220Z,5.37
2018-09-11T20:49:18.103Z,7.40
2018-09-11T20:51:46.229Z,6.20
2018-09-11T20:54:14.375Z,4.93
2018-09-11T20:56:44.187Z,4.83
2018-09-11T20:59:12.353Z,5.20
2018-09-11T21:01:40.434Z,4.87
2018-09-11T21:04:08.696Z,5.43
2018-09-11T21:06:36.775Z,4.63
2018-09-11T21:09:05.982Z,5.37
2018-09-11T21:11:34.359Z,4.87
2018-09-11T21:14:02.570Z,5.47
2018-09-11T21:16:30.878Z,5.27
2018-09-11T21:18:59.050Z,5.17
2018-09-11T21:21:27.161Z,5.30
2018-09-11T21:23:55.739Z,4.70
2018-09-11T21:26:23.883Z,5.10
2018-09-11T21:28:52.670Z,4.83
2018-09-11T21:31:20.872Z,4.47
2018-09-11T21:33:49.092Z,4.40
2018-09-11T21:36:17.206Z,4.53
2018-09-11T21:38:45.308Z,3.97
2018-09-11T21:41:13.439Z,4.47
2018-09-11T21:43:42.944Z,4.40
2018-09-11T21:46:11.145Z,4.20
2018-09-11T21:48:39.338Z,4.10
2018-09-11T21:51:07.455Z,3.93
2018-09-11T21:53:35.586Z,3.97
2018-09-11T21:56:04.311Z,3.50
2018-09-11T21:58:33.011Z,3.40
2018-09-11T22:01:02.338Z,4.07
2018-09-11T22:03:31.194Z,4.07
2018-09-11T22:06:00.060Z,4.23
2018-09-11T22:08:28.335Z,3.97
2018-09-11T22:10:57.252Z,4.23
2018-09-11T22:13:25.507Z,4.23
2018-09-11T22:15:54.603Z,3.40
2018-09-11T22:18:22.726Z,3.20
2018-09-11T22:20:50.955Z,3.33
2018-09-11T22:23:19.227Z,3.33
2018-09-11T22:25:48.227Z,3.33
2018-09-11T22:28:16.529Z,3.40
2018-09-11T22:30:44.735Z,3.37
2018-09-11T22:33:12.942Z,3.37
2018-09-11T22:35:41.114Z,3.37
2018-09-11T22:38:09.295Z,3.23
2018-09-11T22:40:37.550Z,3.50
2018-09-11T22:43:06.193Z,3.10
2018-09-11T22:45:34.371Z,3.63
2018-09-11T22:48:03.267Z,3.43
2018-09-11T22:50:31.856Z,3.27
2018-09-11T22:53:00.126Z,3.50
2018-09-11T22:55:29.232Z,3.50
2018-09-11T22:57:57.353Z,3.50
2018-09-11T23:00:26.367Z,3.47
2018-09-11T23:02:55.568Z,3.50
2018-09-11T23:05:23.979Z,3.70
2018-09-11T23:07:52.233Z,3.63
2018-09-11T23:10:20.412Z,3.23
2018-09-11T23:12:48.569Z,3.67
2018-09-11T23:15:17.441Z,3.50
2018-09-11T23:17:45.646Z,3.43
2018-09-11T23:20:14.131Z,3.33
2018-09-11T23:22:42.808Z,3.27
2018-09-11T23:25:11.066Z,2.93
2018-09-11T23:27:39.163Z,3.30
2018-09-11T23:30:07.873Z,3.03
2018-09-11T23:32:36.238Z,3.03
2018-09-11T23:35:04.653Z,3.00
2018-09-11T23:37:32.991Z,2.90
2018-09-11T23:40:01.187Z,2.50
2018-09-11T23:42:29.408Z,2.70
2018-09-11T23:44:57.592Z,2.23
2018-09-11T23:47:25.806Z,2.73
2018-09-11T23:49:54.003Z,2.97
2018-09-11T23:52:22.236Z,2.70
2018-09-11T23:54:50.441Z,2.87
2018-09-11T23:57:18.687Z,2.63
2018-09-11T23:59:46.866Z,2.80
